Time;durP1;ratioP1;P1;durP2;ratioP2;P2;SDS_P1;SDS_P2;PMS_P1;PMS_P2;Temp;Humidity;BMP_temperature;BMP_pressure;BME280_temperature;BME280_humidity;BME280_pressure;Samples;Min_cycle;Max_cycle;Signal;HPM_P1;HPM_P2
2021/03/30 00:00:46;;;;;;;22.03;14.57;;;;;;;;;;4315108;33;20235;-58
2021/03/30 00:03:12;;;;;;;15.83;10.27;;;;;;;;;;4323520;33;20359;-58
2021/03/30 00:05:38;;;;;;;13.57;9.53;;;;;;;;;;4318514;33;20547;-57
2021/03/30 00:08:04;;;;;;;19.60;10.63;;;;;;;;;;4313953;33;20621;-57
2021/03/30 00:10:36;;;;;;;21.73;12.43;;;;;;;;;;4317731;33;20218;-58
2021/03/30 00:13:02;;;;;;;35.67;19.67;;;;;;;;;;4328140;33;20243;-58
2021/03/30 00:15:27;;;;;;;51.53;37.57;;;;;;;;;;4328590;33;20613;-58
2021/03/30 00:17:53;;;;;;;33.67;23.93;;;;;;;;;;4320988;33;20314;-58
2021/03/30 00:20:19;;;;;;;23.40;18.13;;;;;;;;;;4314019;33;20266;-58
2021/03/30 00:22:45;;;;;;;22.97;15.93;;;;;;;;;;4319178;33;20293;-57
2021/03/30 00:25:11;;;;;;;26.03;13.80;;;;;;;;;;4339489;33;20633;-57
2021/03/30 00:27:37;;;;;;;17.53;11.47;;;;;;;;;;4328293;33;20320;-57
2021/03/30 00:30:08;;;;;;;18.93;10.73;;;;;;;;;;4328203;33;20218;-57
2021/03/30 00:32:33;;;;;;;19.50;10.13;;;;;;;;;;4327996;33;20211;-57
2021/03/30 00:34:59;;;;;;;22.60;9.73;;;;;;;;;;4328200;33;20652;-56
2021/03/30 00:37:25;;;;;;;23.00;8.63;;;;;;;;;;4314638;33;20345;-59
2021/03/30 00:39:50;;;;;;;17.60;10.43;;;;;;;;;;4314852;33;20584;-57
2021/03/30 00:42:24;;;;;;;18.87;12.00;;;;;;;;;;4327939;33;20286;-58
2021/03/30 00:44:51;;;;;;;22.27;13.47;;;;;;;;;;4328040;33;20256;-58
2021/03/30 00:47:20;;;;;;;19.00;11.13;;;;;;;;;;4328116;33;20262;-59
2021/03/30 00:49:47;;;;;;;15.57;8.87;;;;;;;;;;4328231;33;20662;-57
2021/03/30 00:52:13;;;;;;;12.30;7.73;;;;;;;;;;4314019;33;20223;-58
2021/03/30 00:54:38;;;;;;;12.27;6.63;;;;;;;;;;4327779;33;20447;-57
2021/03/30 00:57:06;;;;;;;11.30;7.07;;;;;;;;;;4310647;33;20243;-58
2021/03/30 00:59:31;;;;;;;17.23;6.63;;;;;;;;;;4313231;33;20223;-58
2021/03/30 01:01:58;;;;;;;22.93;7.23;;;;;;;;;;4299714;33;20230;-58
2021/03/30 01:04:23;;;;;;;16.50;6.83;;;;;;;;;;4320905;33;20215;-57
2021/03/30 01:06:49;;;;;;;14.13;6.20;;;;;;;;;;4313937;33;20293;-58
2021/03/30 01:09:40;;;;;;;13.90;7.60;;;;;;;;;;4327664;33;20246;-58
2021/03/30 01:12:27;;;;;;;17.83;8.97;;;;;;;;;;4326969;33;20369;-58
2021/03/30 01:14:59;;;;;;;16.63;9.73;;;;;;;;;;4325618;33;20328;-58
2021/03/30 01:17:28;;;;;;;15.93;9.87;;;;;;;;;;4337692;33;20246;-58
2021/03/30 01:20:35;;;;;;;20.77;11.50;;;;;;;;;;4327624;33;20252;-57
2021/03/30 01:23:22;;;;;;;30.53;16.90;;;;;;;;;;4327287;33;20218;-58
2021/03/30 01:26:23;;;;;;;22.57;15.03;;;;;;;;;;4327701;33;20333;-58
2021/03/30 01:29:11;;;;;;;22.50;14.50;;;;;;;;;;4308171;33;20250;-57
2021/03/30 01:31:39;;;;;;;22.70;13.80;;;;;;;;;;4327274;33;20273;-58
2021/03/30 01:34:06;;;;;;;15.20;11.47;;;;;;;;;;4327802;33;20573;-58
2021/03/30 01:36:36;;;;;;;15.47;9.60;;;;;;;;;;4327451;33;20301;-58
2021/03/30 01:39:03;;;;;;;13.07;7.63;;;;;;;;;;4313777;33;20402;-59
2021/03/30 01:41:29;;;;;;;10.97;6.70;;;;;;;;;;4313614;33;20399;-60
2021/03/30 01:43:56;;;;;;;7.40;4.50;;;;;;;;;;4313806;33;20274;-58
2021/03/30 01:46:23;;;;;;;14.07;4.87;;;;;;;;;;4327117;33;20224;-57
2021/03/30 01:48:50;;;;;;;10.40;5.57;;;;;;;;;;4327042;33;20235;-57
2021/03/30 01:51:16;;;;;;;15.77;6.30;;;;;;;;;;4326810;33;20269;-57
2021/03/30 01:53:43;;;;;;;9.43;6.37;;;;;;;;;;4327015;33;20388;-57
2021/03/30 01:56:13;;;;;;;8.07;5.43;;;;;;;;;;4313960;33;20286;-57
2021/03/30 01:58:39;;;;;;;10.67;5.73;;;;;;;;;;4325565;33;20305;-57
2021/03/30 02:01:07;;;;;;;13.43;6.50;;;;;;;;;;4326974;33;20243;-57
2021/03/30 02:03:33;;;;;;;14.23;6.37;;;;;;;;;;4296736;33;20756;-57
2021/03/30 02:06:01;;;;;;;13.83;6.70;;;;;;;;;;4312886;33;20655;-57
2021/03/30 02:08:31;;;;;;;16.37;5.83;;;;;;;;;;4312276;33;20318;-57
2021/03/30 02:10:57;;;;;;;15.97;6.30;;;;;;;;;;4313041;33;20293;-57
2021/03/30 02:13:38;;;;;;;17.90;7.20;;;;;;;;;;4326629;33;20235;-57
2021/03/30 02:16:19;;;;;;;20.93;8.63;;;;;;;;;;4326759;33;20203;-57
2021/03/30 02:18:58;;;;;;;42.93;26.00;;;;;;;;;;4316376;33;20258;-58
2021/03/30 02:21:33;;;;;;;32.70;21.20;;;;;;;;;;4326924;33;20273;-57
2021/03/30 02:24:05;;;;;;;46.67;27.73;;;;;;;;;;4326713;33;20376;-57
2021/03/30 02:26:33;;;;;;;49.57;27.43;;;;;;;;;;4327582;33;20230;-57
2021/03/30 02:29:00;;;;;;;29.67;20.27;;;;;;;;;;4329496;33;20640;-58
2021/03/30 02:31:29;;;;;;;28.40;15.27;;;;;;;;;;4324226;33;20247;-57
2021/03/30 02:33:58;;;;;;;17.20;10.00;;;;;;;;;;4301854;33;20290;-57
2021/03/30 02:36:27;;;;;;;20.33;8.70;;;;;;;;;;4314871;33;20236;-57
2021/03/30 02:38:56;;;;;;;10.77;7.23;;;;;;;;;;4315223;33;20251;-57
2021/03/30 02:41:22;;;;;;;15.43;7.43;;;;;;;;;;4314814;33;20261;-58
2021/03/30 02:43:49;;;;;;;11.93;7.17;;;;;;;;;;4314970;33;20222;-57
2021/03/30 02:46:16;;;;;;;14.63;6.30;;;;;;;;;;4314944;33;20283;-57
2021/03/30 02:48:43;;;;;;;11.97;6.03;;;;;;;;;;4313769;33;20290;-58
2021/03/30 02:51:10;;;;;;;23.63;15.97;;;;;;;;;;4314443;33;20353;-58
2021/03/30 02:53:37;;;;;;;34.47;21.50;;;;;;;;;;4314943;33;20680;-57
2021/03/30 02:56:05;;;;;;;26.07;17.23;;;;;;;;;;4314972;33;20321;-56
2021/03/30 02:58:32;;;;;;;24.17;13.87;;;;;;;;;;4314869;33;20554;-58
2021/03/30 03:00:59;;;;;;;20.87;17.00;;;;;;;;;;4314498;33;20301;-57
2021/03/30 03:03:30;;;;;;;19.10;13.77;;;;;;;;;;4322098;33;20264;-57
2021/03/30 03:05:57;;;;;;;15.17;12.77;;;;;;;;;;4313649;33;20239;-56
2021/03/30 03:08:23;;;;;;;16.10;10.10;;;;;;;;;;4314910;33;20342;-56
2021/03/30 03:10:51;;;;;;;14.20;9.07;;;;;;;;;;4320211;33;20817;-57
2021/03/30 03:13:18;;;;;;;21.30;12.10;;;;;;;;;;4329249;33;20673;-57
2021/03/30 03:15:45;;;;;;;16.03;14.03;;;;;;;;;;4329328;33;20690;-57
2021/03/30 03:18:12;;;;;;;25.43;13.43;;;;;;;;;;4328953;33;20597;-57
2021/03/30 03:20:39;;;;;;;17.50;11.27;;;;;;;;;;4328885;33;20711;-57
2021/03/30 03:23:05;;;;;;;16.60;12.50;;;;;;;;;;4328820;33;20262;-57
2021/03/30 03:25:31;;;;;;;18.03;12.17;;;;;;;;;;4329284;33;20294;-57
2021/03/30 03:28:00;;;;;;;19.40;11.30;;;;;;;;;;4329092;33;20266;-57
2021/03/30 03:30:26;;;;;;;27.07;11.77;;;;;;;;;;4329261;33;20285;-56
2021/03/30 03:32:52;;;;;;;30.43;16.50;;;;;;;;;;4328796;33;20282;-57
2021/03/30 03:35:18;;;;;;;26.23;14.80;;;;;;;;;;4329100;33;20288;-57
2021/03/30 03:37:45;;;;;;;22.03;11.00;;;;;;;;;;4315148;33;20318;-57
2021/03/30 03:40:12;;;;;;;21.73;10.20;;;;;;;;;;4328532;33;20250;-57
2021/03/30 03:42:39;;;;;;;19.93;10.13;;;;;;;;;;4315002;33;20230;-58
2021/03/30 03:45:06;;;;;;;30.37;12.97;;;;;;;;;;4328985;33;20298;-57
2021/03/30 03:47:31;;;;;;;30.50;12.90;;;;;;;;;;4329343;33;20224;-57
2021/03/30 03:49:57;;;;;;;20.50;12.67;;;;;;;;;;4315469;33;20231;-57
2021/03/30 03:52:23;;;;;;;20.87;12.47;;;;;;;;;;4328841;33;20371;-57
2021/03/30 03:54:50;;;;;;;23.13;13.80;;;;;;;;;;4328781;33;20223;-58
2021/03/30 03:57:29;;;;;;;22.80;12.37;;;;;;;;;;4328599;33;20360;-58
2021/03/30 03:59:57;;;;;;;24.03;14.07;;;;;;;;;;4328881;33;20242;-56
2021/03/30 04:02:25;;;;;;;28.47;13.20;;;;;;;;;;4323595;33;20207;-58
2021/03/30 04:04:59;;;;;;;29.17;15.00;;;;;;;;;;4319882;33;20247;-57
2021/03/30 04:07:37;;;;;;;27.47;13.57;;;;;;;;;;4313996;33;20298;-56
2021/03/30 04:10:04;;;;;;;36.50;21.77;;;;;;;;;;4315048;33;20356;-57
2021/03/30 04:12:31;;;;;;;41.30;19.20;;;;;;;;;;4331422;33;20657;-57
2021/03/30 04:15:00;;;;;;;37.90;18.33;;;;;;;;;;4328379;33;20289;-56
2021/03/30 04:17:25;;;;;;;44.67;17.63;;;;;;;;;;4328532;33;20227;-58
2021/03/30 04:19:51;;;;;;;40.37;21.27;;;;;;;;;;4328464;33;20231;-57
2021/03/30 04:22:17;;;;;;;73.57;42.87;;;;;;;;;;4314585;33;20760;-58
2021/03/30 04:24:43;;;;;;;60.20;37.23;;;;;;;;;;4328703;33;20223;-57
2021/03/30 04:27:11;;;;;;;53.03;26.73;;;;;;;;;;4328019;33;20290;-58
2021/03/30 04:29:41;;;;;;;44.03;22.77;;;;;;;;;;4327453;33;20223;-57
2021/03/30 04:32:08;;;;;;;46.23;19.97;;;;;;;;;;4326627;33;20289;-57
2021/03/30 04:34:34;;;;;;;48.93;18.37;;;;;;;;;;4328486;33;20277;-56
2021/03/30 04:36:59;;;;;;;60.43;22.17;;;;;;;;;;4314569;33;20235;-56
2021/03/30 04:39:25;;;;;;;60.80;26.50;;;;;;;;;;4328096;33;20243;-57
2021/03/30 04:41:50;;;;;;;54.60;24.37;;;;;;;;;;4314461;33;20312;-56
2021/03/30 04:44:16;;;;;;;56.57;24.53;;;;;;;;;;4327866;33;20258;-56
2021/03/30 04:46:41;;;;;;;43.93;23.37;;;;;;;;;;4314741;33;20211;-57
2021/03/30 04:49:07;;;;;;;61.40;24.90;;;;;;;;;;4328010;33;20238;-57
2021/03/30 04:51:32;;;;;;;62.77;25.90;;;;;;;;;;4314226;33;20276;-56
2021/03/30 04:53:58;;;;;;;68.77;27.97;;;;;;;;;;4327797;33;20784;-57
2021/03/30 04:56:23;;;;;;;74.50;26.63;;;;;;;;;;4327754;33;20238;-57
2021/03/30 04:58:49;;;;;;;62.60;25.07;;;;;;;;;;4327489;33;20289;-56
2021/03/30 05:01:14;;;;;;;49.73;24.47;;;;;;;;;;4327266;33;20273;-56
2021/03/30 05:03:40;;;;;;;49.90;28.20;;;;;;;;;;4321377;33;20220;-57
2021/03/30 05:06:05;;;;;;;67.97;32.50;;;;;;;;;;4311726;33;20663;-59
2021/03/30 05:08:31;;;;;;;124.17;51.00;;;;;;;;;;4313443;33;20227;-57
2021/03/30 05:10:57;;;;;;;107.33;50.40;;;;;;;;;;4319141;33;20533;-57
2021/03/30 05:13:22;;;;;;;70.03;41.37;;;;;;;;;;4327539;33;20306;-57
2021/03/30 05:15:48;;;;;;;103.63;50.93;;;;;;;;;;4338888;33;20361;-57
2021/03/30 05:18:14;;;;;;;97.73;49.93;;;;;;;;;;4327482;33;20352;-56
2021/03/30 05:20:39;;;;;;;89.93;52.97;;;;;;;;;;4327183;33;20301;-57
2021/03/30 05:23:05;;;;;;;78.57;46.70;;;;;;;;;;4327339;33;20377;-55
2021/03/30 05:25:30;;;;;;;95.03;55.17;;;;;;;;;;4326377;33;20231;-57
2021/03/30 05:27:56;;;;;;;91.60;49.93;;;;;;;;;;4338507;33;20348;-56
2021/03/30 05:30:22;;;;;;;82.17;44.20;;;;;;;;;;4327221;33;20235;-57
2021/03/30 05:32:47;;;;;;;73.63;43.13;;;;;;;;;;4326770;33;20290;-59
2021/03/30 05:35:14;;;;;;;68.80;40.27;;;;;;;;;;4327624;33;20227;-56
2021/03/30 05:37:40;;;;;;;77.23;37.67;;;;;;;;;;4313890;33;20219;-57
2021/03/30 05:40:24;;;;;;;77.27;38.13;;;;;;;;;;4314045;33;20285;-57
2021/03/30 05:42:49;;;;;;;65.53;32.20;;;;;;;;;;4327140;33;20208;-57
2021/03/30 05:45:17;;;;;;;62.00;35.53;;;;;;;;;;4327212;33;20242;-57
2021/03/30 05:47:43;;;;;;;73.63;34.80;;;;;;;;;;4327804;33;20731;-57
2021/03/30 05:50:14;;;;;;;66.10;38.17;;;;;;;;;;4313735;33;20454;-57
2021/03/30 05:55:27;;;;;;;80.80;43.13;;;;;;;;;;4327045;33;20281;-55
2021/03/30 05:57:58;;;;;;;83.90;43.03;;;;;;;;;;4327176;33;20252;-70
2021/03/30 06:00:29;;;;;;;80.93;41.47;;;;;;;;;;4313903;33;20265;-71
2021/03/30 06:02:58;;;;;;;66.97;34.30;;;;;;;;;;4322053;33;20228;-71
2021/03/30 06:05:23;;;;;;;56.97;33.60;;;;;;;;;;4312313;33;20236;-69
2021/03/30 06:07:52;;;;;;;61.37;32.20;;;;;;;;;;4312528;33;20760;-68
2021/03/30 06:10:22;;;;;;;82.10;34.13;;;;;;;;;;4314429;33;20268;-70
2021/03/30 06:12:47;;;;;;;57.50;31.70;;;;;;;;;;4317673;33;20266;-70
2021/03/30 06:15:14;;;;;;;65.70;32.30;;;;;;;;;;4325478;33;20487;-71
2021/03/30 06:17:43;;;;;;;64.80;32.90;;;;;;;;;;4325297;33;20231;-71
2021/03/30 06:20:09;;;;;;;73.33;39.93;;;;;;;;;;4325640;33;20380;-69
2021/03/30 06:22:47;;;;;;;59.97;34.07;;;;;;;;;;4324299;33;20265;-58
2021/03/30 06:25:33;;;;;;;54.77;26.67;;;;;;;;;;4325452;33;20235;-57
2021/03/30 06:28:20;;;;;;;54.77;27.50;;;;;;;;;;4327572;33;20271;-58
2021/03/30 06:31:04;;;;;;;51.77;27.73;;;;;;;;;;4320138;33;20261;-57
2021/03/30 06:33:32;;;;;;;56.90;29.77;;;;;;;;;;4310819;33;20242;-57
2021/03/30 06:36:11;;;;;;;52.00;29.60;;;;;;;;;;4321939;33;20609;-57
2021/03/30 06:39:07;;;;;;;52.70;31.63;;;;;;;;;;4320547;33;20355;-57
2021/03/30 06:41:37;;;;;;;65.70;33.07;;;;;;;;;;4312276;33;20356;-57
2021/03/30 06:44:27;;;;;;;56.00;29.57;;;;;;;;;;4311151;33;20442;-58
2021/03/30 06:46:56;;;;;;;63.43;32.07;;;;;;;;;;4313985;33;20368;-58
2021/03/30 06:49:23;;;;;;;64.63;33.40;;;;;;;;;;4323946;33;20807;-57
2021/03/30 06:51:49;;;;;;;61.37;33.23;;;;;;;;;;4306239;33;20317;-58
2021/03/30 06:54:15;;;;;;;57.33;33.37;;;;;;;;;;4315652;33;20246;-57
2021/03/30 06:56:46;;;;;;;54.33;33.57;;;;;;;;;;4321807;33;20722;-57
2021/03/30 06:59:12;;;;;;;62.07;39.40;;;;;;;;;;4320559;33;20222;-56
2021/03/30 07:01:38;;;;;;;56.50;38.57;;;;;;;;;;4318487;33;20292;-58
2021/03/30 07:04:06;;;;;;;61.27;35.70;;;;;;;;;;4313334;33;20351;-57
2021/03/30 07:06:32;;;;;;;52.80;31.93;;;;;;;;;;4316378;33;20295;-57
2021/03/30 07:08:59;;;;;;;53.67;32.90;;;;;;;;;;4310884;33;20566;-57
2021/03/30 07:11:25;;;;;;;50.43;26.33;;;;;;;;;;4312935;33;20281;-57
2021/03/30 07:13:50;;;;;;;36.57;21.73;;;;;;;;;;4319262;33;20657;-57
2021/03/30 07:16:20;;;;;;;40.60;18.70;;;;;;;;;;4320585;33;20212;-56
2021/03/30 07:18:49;;;;;;;29.00;15.60;;;;;;;;;;4324787;33;20308;-57
2021/03/30 07:21:22;;;;;;;23.57;13.50;;;;;;;;;;4321986;33;20275;-57
2021/03/30 07:23:57;;;;;;;22.63;11.57;;;;;;;;;;4315289;33;20267;-56
2021/03/30 07:26:35;;;;;;;19.20;9.30;;;;;;;;;;4321259;33;20317;-57
2021/03/30 07:29:06;;;;;;;13.70;9.60;;;;;;;;;;4315982;33;20269;-58
2021/03/30 07:31:48;;;;;;;19.80;9.40;;;;;;;;;;4318309;33;20318;-57
2021/03/30 07:34:19;;;;;;;11.60;7.90;;;;;;;;;;4322392;33;20646;-57
2021/03/30 07:36:58;;;;;;;18.97;7.67;;;;;;;;;;4319932;33;20294;-57
2021/03/30 07:39:27;;;;;;;15.10;7.93;;;;;;;;;;4314964;33;20227;-57
2021/03/30 07:41:53;;;;;;;13.53;4.67;;;;;;;;;;4325497;33;20345;-57
2021/03/30 07:44:20;;;;;;;14.53;5.70;;;;;;;;;;4320831;33;20730;-57
2021/03/30 07:46:46;;;;;;;13.97;6.07;;;;;;;;;;4323434;33;20293;-57
2021/03/30 07:49:12;;;;;;;11.30;5.07;;;;;;;;;;4319462;33;20223;-57
2021/03/30 07:51:42;;;;;;;10.17;4.33;;;;;;;;;;4318185;33;20265;-58
2021/03/30 07:54:16;;;;;;;8.97;4.97;;;;;;;;;;4322080;33;20231;-57
2021/03/30 07:56:44;;;;;;;10.37;4.93;;;;;;;;;;4328680;33;20355;-57
2021/03/30 07:59:43;;;;;;;7.57;3.87;;;;;;;;;;4317356;33;20651;-57
2021/03/30 08:02:11;;;;;;;17.10;4.93;;;;;;;;;;4320361;33;20282;-57
2021/03/30 08:04:37;;;;;;;14.90;5.00;;;;;;;;;;4315841;33;20302;-57
2021/03/30 08:07:03;;;;;;;8.33;3.93;;;;;;;;;;4324310;33;20234;-57
2021/03/30 08:09:29;;;;;;;5.13;3.30;;;;;;;;;;4324675;33;20644;-56
2021/03/30 08:11:58;;;;;;;17.37;5.93;;;;;;;;;;4322112;33;20249;-57
2021/03/30 08:14:28;;;;;;;5.63;3.40;;;;;;;;;;4326165;33;20266;-57
2021/03/30 08:16:56;;;;;;;10.20;3.37;;;;;;;;;;4317172;33;20266;-58
2021/03/30 08:19:25;;;;;;;10.07;3.87;;;;;;;;;;4322402;33;20254;-58
2021/03/30 08:22:02;;;;;;;11.20;4.43;;;;;;;;;;4319488;33;20668;-57
2021/03/30 08:24:48;;;;;;;12.13;5.00;;;;;;;;;;4321969;33;20255;-57
2021/03/30 08:27:34;;;;;;;9.47;3.93;;;;;;;;;;4306928;33;20366;-56
2021/03/30 08:30:35;;;;;;;6.83;3.53;;;;;;;;;;4314611;33;20351;-57
2021/03/30 08:33:03;;;;;;;16.73;4.30;;;;;;;;;;4315072;33;20330;-58
2021/03/30 08:35:28;;;;;;;19.87;6.37;;;;;;;;;;4324206;33;20398;-58
2021/03/30 08:37:54;;;;;;;5.13;2.87;;;;;;;;;;4316784;33;20305;-56
2021/03/30 08:40:35;;;;;;;8.43;3.40;;;;;;;;;;4325442;33;20214;-58
2021/03/30 08:43:13;;;;;;;5.47;3.30;;;;;;;;;;4313535;33;20336;-57
2021/03/30 08:46:13;;;;;;;13.33;5.73;;;;;;;;;;4321598;33;20241;-57
2021/03/30 08:48:47;;;;;;;7.97;3.13;;;;;;;;;;4306552;33;20370;-58
2021/03/30 08:51:15;;;;;;;9.10;3.50;;;;;;;;;;4317232;33;20235;-57
2021/03/30 08:53:41;;;;;;;11.23;4.17;;;;;;;;;;4318503;33;20250;-58
2021/03/30 08:56:10;;;;;;;11.37;3.60;;;;;;;;;;4323789;33;20279;-56
2021/03/30 08:58:48;;;;;;;9.87;3.10;;;;;;;;;;4313380;33;20231;-57
2021/03/30 09:01:14;;;;;;;5.73;2.70;;;;;;;;;;4320354;33;20223;-57
2021/03/30 09:03:40;;;;;;;5.87;3.20;;;;;;;;;;4313490;33;20668;-58
2021/03/30 09:06:25;;;;;;;11.73;3.50;;;;;;;;;;4322668;33;20253;-56
2021/03/30 09:08:50;;;;;;;4.77;2.50;;;;;;;;;;4316532;33;20344;-56
2021/03/30 09:11:27;;;;;;;8.27;5.07;;;;;;;;;;4320139;33;20250;-57
2021/03/30 09:13:57;;;;;;;10.30;3.43;;;;;;;;;;4312722;33;20320;-55
2021/03/30 09:24:54;;;;;;;9.00;3.20;;;;;;;;;;4454444;32;20228;-56
2021/03/30 09:27:22;;;;;;;9.33;4.00;;;;;;;;;;4445936;32;20306;-57
2021/03/30 09:29:52;;;;;;;8.83;2.77;;;;;;;;;;4447368;32;20244;-57
2021/03/30 09:32:17;;;;;;;8.03;3.40;;;;;;;;;;4455503;32;20307;-57
2021/03/30 09:34:44;;;;;;;16.63;3.50;;;;;;;;;;4449850;32;20392;-57
2021/03/30 09:37:09;;;;;;;8.07;3.10;;;;;;;;;;4442683;32;20293;-57
2021/03/30 09:39:36;;;;;;;6.37;3.63;;;;;;;;;;4454243;32;20287;-58
2021/03/30 09:42:03;;;;;;;7.17;4.23;;;;;;;;;;4461011;32;20258;-57
2021/03/30 09:44:35;;;;;;;13.33;3.47;;;;;;;;;;4456535;32;20200;-57
2021/03/30 09:47:00;;;;;;;7.97;4.27;;;;;;;;;;4445389;32;20362;-56
2021/03/30 09:49:26;;;;;;;10.70;3.53;;;;;;;;;;4445289;32;20714;-59
2021/03/30 09:51:53;;;;;;;17.87;3.50;;;;;;;;;;4448214;32;20650;-58
2021/03/30 09:54:26;;;;;;;9.43;3.70;;;;;;;;;;4453178;32;20200;-56
2021/03/30 09:56:56;;;;;;;7.95;2.47;;;;;;;;;;4447545;32;20232;-57
2021/03/30 09:59:22;;;;;;;4.77;2.93;;;;;;;;;;4429858;32;20323;-57
2021/03/30 10:01:48;;;;;;;5.43;3.12;;;;;;;;;;4438345;32;20288;-57
2021/03/30 10:04:14;;;;;;;7.43;4.25;;;;;;;;;;4455805;32;20392;-58
2021/03/30 10:06:39;;;;;;;8.00;3.73;;;;;;;;;;4447895;32;20299;-57
2021/03/30 10:09:07;;;;;;;7.03;3.85;;;;;;;;;;4448633;32;20275;-58
2021/03/30 10:11:33;;;;;;;6.90;3.70;;;;;;;;;;4457473;32;20216;-58
2021/03/30 10:14:20;;;;;;;7.33;2.83;;;;;;;;;;4458123;32;20297;-57
2021/03/30 10:16:46;;;;;;;8.27;3.03;;;;;;;;;;4457595;32;20296;-57
2021/03/30 10:19:13;;;;;;;8.93;2.47;;;;;;;;;;4445779;32;20719;-56
2021/03/30 10:21:39;;;;;;;8.13;4.87;;;;;;;;;;4446593;32;20379;-57
2021/03/30 10:24:17;;;;;;;8.27;3.77;;;;;;;;;;4442527;32;20220;-57
2021/03/30 10:27:00;;;;;;;6.00;2.75;;;;;;;;;;4448857;32;20255;-58
2021/03/30 10:29:33;;;;;;;10.60;6.40;;;;;;;;;;4434916;32;20249;-57
2021/03/30 10:32:07;;;;;;;20.85;5.68;;;;;;;;;;4444062;32;20288;-58
2021/03/30 10:34:34;;;;;;;11.23;4.40;;;;;;;;;;4423931;32;20284;-57
2021/03/30 10:37:03;;;;;;;4.83;2.77;;;;;;;;;;4427877;32;20236;-58
2021/03/30 10:39:33;;;;;;;4.22;2.72;;;;;;;;;;4437724;32;20240;-57
2021/03/30 10:42:06;;;;;;;8.73;3.70;;;;;;;;;;4440517;32;20315;-57
2021/03/30 10:44:37;;;;;;;3.33;2.42;;;;;;;;;;4443187;32;20213;-57
2021/03/30 10:47:13;;;;;;;4.70;2.23;;;;;;;;;;4439671;32;20410;-56
2021/03/30 10:49:40;;;;;;;5.90;2.67;;;;;;;;;;4436865;32;20228;-56
2021/03/30 10:52:06;;;;;;;3.45;2.47;;;;;;;;;;4428496;32;20676;-56
2021/03/30 10:54:31;;;;;;;4.18;2.67;;;;;;;;;;4441428;32;20398;-57
2021/03/30 10:56:57;;;;;;;5.25;2.75;;;;;;;;;;4437357;32;20232;-57
2021/03/30 10:59:24;;;;;;;6.53;2.62;;;;;;;;;;4430838;32;20394;-56
2021/03/30 11:01:49;;;;;;;4.95;3.45;;;;;;;;;;4446591;32;20657;-56
2021/03/30 11:04:15;;;;;;;9.30;3.33;;;;;;;;;;4448465;32;20317;-57
2021/03/30 11:06:42;;;;;;;14.93;5.80;;;;;;;;;;4445396;32;20224;-66
2021/03/30 11:09:08;;;;;;;15.60;4.03;;;;;;;;;;4413472;32;20233;-65
2021/03/30 11:11:35;;;;;;;6.80;3.65;;;;;;;;;;4433400;32;20251;-70
2021/03/30 11:14:01;;;;;;;8.95;3.35;;;;;;;;;;4441904;32;20207;-65
2021/03/30 11:16:27;;;;;;;4.20;2.60;;;;;;;;;;4430459;32;20349;-66
2021/03/30 11:18:53;;;;;;;8.95;4.55;;;;;;;;;;4438460;32;20299;-67
2021/03/30 11:21:21;;;;;;;6.53;3.30;;;;;;;;;;4426253;32;20299;-65
2021/03/30 11:23:47;;;;;;;23.80;11.82;;;;;;;;;;4366099;32;20281;-63
2021/03/30 11:26:13;;;;;;;14.55;6.80;;;;;;;;;;4240337;32;20643;-63
2021/03/30 11:28:42;;;;;;;64.18;38.90;;;;;;;;;;4393181;32;20246;-64
2021/03/30 11:31:16;;;;;;;6.40;4.40;;;;;;;;;;4402030;32;20296;-62
2021/03/30 11:33:46;;;;;;;6.05;3.12;;;;;;;;;;4382310;32;20228;-62
2021/03/30 11:36:14;;;;;;;8.23;3.20;;;;;;;;;;4395594;32;20709;-64
2021/03/30 11:38:40;;;;;;;9.10;3.47;;;;;;;;;;4389327;32;20346;-64
2021/03/30 11:41:05;;;;;;;10.30;3.15;;;;;;;;;;4388906;32;20439;-62
2021/03/30 11:43:31;;;;;;;14.05;3.33;;;;;;;;;;4394868;32;20314;-63
2021/03/30 11:45:56;;;;;;;7.82;3.03;;;;;;;;;;4394599;32;20708;-64
2021/03/30 11:48:22;;;;;;;9.88;5.25;;;;;;;;;;4396322;32;20324;-62
2021/03/30 11:50:49;;;;;;;13.68;7.28;;;;;;;;;;4390675;32;20768;-62
2021/03/30 11:53:14;;;;;;;17.52;7.82;;;;;;;;;;4397167;32;20609;-66
2021/03/30 11:55:40;;;;;;;6.72;2.90;;;;;;;;;;4397036;32;20279;-64
2021/03/30 11:58:05;;;;;;;24.12;15.23;;;;;;;;;;4398941;32;20354;-64
2021/03/30 12:00:31;;;;;;;10.32;5.50;;;;;;;;;;4396099;32;20449;-63
2021/03/30 12:02:56;;;;;;;9.02;3.22;;;;;;;;;;4398493;32;20247;-64
2021/03/30 12:05:22;;;;;;;9.25;4.62;;;;;;;;;;4391488;32;20347;-65
2021/03/30 12:07:48;;;;;;;10.05;5.45;;;;;;;;;;4394680;32;20221;-64
2021/03/30 12:10:14;;;;;;;12.27;6.87;;;;;;;;;;4388069;32;20475;-63
2021/03/30 12:12:41;;;;;;;11.75;4.22;;;;;;;;;;4397010;32;20249;-65
2021/03/30 12:15:08;;;;;;;7.80;4.28;;;;;;;;;;4392362;32;20282;-64
2021/03/30 12:17:34;;;;;;;13.43;3.83;;;;;;;;;;4396091;32;20271;-64
2021/03/30 12:20:00;;;;;;;7.70;4.22;;;;;;;;;;4393317;32;20622;-66
2021/03/30 12:22:27;;;;;;;10.13;3.47;;;;;;;;;;4390866;32;20294;-64
2021/03/30 12:24:52;;;;;;;5.03;2.85;;;;;;;;;;4397830;32;20804;-65
2021/03/30 12:27:18;;;;;;;12.68;5.97;;;;;;;;;;4398656;32;20245;-65
2021/03/30 12:29:43;;;;;;;4.90;3.65;;;;;;;;;;4394591;32;20240;-63
2021/03/30 12:32:11;;;;;;;12.50;4.65;;;;;;;;;;4393666;32;20292;-66
2021/03/30 12:34:37;;;;;;;9.60;3.83;;;;;;;;;;4402169;32;20260;-65
2021/03/30 12:37:03;;;;;;;4.25;2.55;;;;;;;;;;4400960;32;20304;-65
2021/03/30 12:39:29;;;;;;;9.10;4.78;;;;;;;;;;4402916;32;20743;-66
2021/03/30 12:41:55;;;;;;;5.62;3.17;;;;;;;;;;4402729;32;20217;-64
2021/03/30 12:44:21;;;;;;;5.43;2.58;;;;;;;;;;4402663;32;20579;-67
2021/03/30 12:46:46;;;;;;;5.45;2.05;;;;;;;;;;4402684;32;20260;-65
2021/03/30 12:49:13;;;;;;;5.22;2.20;;;;;;;;;;4388377;32;20652;-64
2021/03/30 12:51:39;;;;;;;12.37;5.32;;;;;;;;;;4388650;32;20487;-63
2021/03/30 12:54:05;;;;;;;8.32;3.45;;;;;;;;;;4402946;32;20318;-63
2021/03/30 12:56:30;;;;;;;6.60;3.83;;;;;;;;;;4402213;32;20241;-64
2021/03/30 12:58:56;;;;;;;11.38;3.33;;;;;;;;;;4402474;32;20723;-63
2021/03/30 13:01:21;;;;;;;10.40;2.80;;;;;;;;;;4388198;32;20328;-64
2021/03/30 13:03:47;;;;;;;7.43;2.35;;;;;;;;;;4388329;32;20751;-64
2021/03/30 13:06:13;;;;;;;3.53;2.33;;;;;;;;;;4402168;32;20291;-69
2021/03/30 13:08:38;;;;;;;21.77;4.32;;;;;;;;;;4402260;32;20314;-69
2021/03/30 13:11:05;;;;;;;10.43;3.45;;;;;;;;;;4402258;32;20320;-71
2021/03/30 13:13:30;;;;;;;18.87;10.63;;;;;;;;;;4402179;32;20579;-69
2021/03/30 13:15:56;;;;;;;10.00;5.65;;;;;;;;;;4402152;32;20295;-70
2021/03/30 13:18:22;;;;;;;123.47;68.75;;;;;;;;;;4392472;32;20373;-69
2021/03/30 13:20:47;;;;;;;19.77;11.95;;;;;;;;;;4387062;32;20277;-66
2021/03/30 13:23:13;;;;;;;10.88;4.80;;;;;;;;;;4387067;32;20719;-66
2021/03/30 13:25:39;;;;;;;8.65;4.95;;;;;;;;;;4387024;32;20571;-64
2021/03/30 13:28:06;;;;;;;5.37;3.22;;;;;;;;;;4386744;32;20351;-66
2021/03/30 13:30:33;;;;;;;5.03;3.47;;;;;;;;;;4397169;32;20209;-64
2021/03/30 13:33:01;;;;;;;8.45;4.18;;;;;;;;;;4401998;32;20353;-63
2021/03/30 13:35:27;;;;;;;9.73;3.12;;;;;;;;;;4401900;32;20222;-64
2021/03/30 13:37:53;;;;;;;18.62;10.02;;;;;;;;;;4401943;32;20350;-65
2021/03/30 13:40:19;;;;;;;34.70;19.30;;;;;;;;;;4402169;32;20648;-63
2021/03/30 13:42:45;;;;;;;11.85;5.15;;;;;;;;;;4401995;32;20297;-65
2021/03/30 13:45:11;;;;;;;6.37;3.33;;;;;;;;;;4401931;32;20280;-67
2021/03/30 13:47:37;;;;;;;6.05;3.28;;;;;;;;;;4401788;32;20320;-67
2021/03/30 13:50:05;;;;;;;6.22;2.87;;;;;;;;;;4402005;32;20416;-65
2021/03/30 13:52:30;;;;;;;8.25;4.35;;;;;;;;;;4402196;32;20221;-66
2021/03/30 13:54:56;;;;;;;18.92;3.50;;;;;;;;;;4388350;32;20327;-56
2021/03/30 13:57:21;;;;;;;12.35;3.75;;;;;;;;;;4401317;32;20586;-56
2021/03/30 13:59:47;;;;;;;14.63;7.93;;;;;;;;;;4401785;32;20410;-56
2021/03/30 14:02:12;;;;;;;8.88;4.70;;;;;;;;;;4401699;32;20312;-56
2021/03/30 14:04:38;;;;;;;10.52;5.12;;;;;;;;;;4389568;32;20775;-56
2021/03/30 14:07:03;;;;;;;9.52;4.45;;;;;;;;;;4404582;32;20649;-56
2021/03/30 14:09:31;;;;;;;9.38;5.43;;;;;;;;;;4404741;32;20314;-57
2021/03/30 14:12:01;;;;;;;14.43;6.22;;;;;;;;;;4404705;32;20766;-56
2021/03/30 14:14:32;;;;;;;12.82;4.57;;;;;;;;;;4404583;32;20229;-55
2021/03/30 14:19:32;;;;;;;11.30;4.50;;;;;;;;;;4389280;32;20290;-58
2021/03/30 14:22:01;;;;;;;9.27;3.97;;;;;;;;;;4364037;32;20239;-55
2021/03/30 14:24:50;;;;;;;6.87;4.82;;;;;;;;;;4389462;32;20230;-55
2021/03/30 14:27:15;;;;;;;7.62;4.68;;;;;;;;;;4389713;32;20637;-55
2021/03/30 14:29:50;;;;;;;16.62;10.18;;;;;;;;;;4318237;32;20261;-56
2021/03/30 14:33:30;;;;;;;8.90;4.50;;;;;;;;;;4030750;32;20434;-55
2021/03/30 14:35:55;;;;;;;12.43;5.03;;;;;;;;;;4040961;33;20338;-55
2021/03/30 14:39:27;;;;;;;15.63;4.47;;;;;;;;;;4492997;31;20377;-56
2021/03/30 14:42:00;;;;;;;12.52;5.85;;;;;;;;;;4472450;32;20223;-55
2021/03/30 14:44:33;;;;;;;7.18;4.20;;;;;;;;;;4460483;32;20261;-56
2021/03/30 14:52:34;;;;;;;7.93;5.72;;;;;;;;;;4461606;32;20299;-54
2021/03/30 14:55:08;;;;;;;6.90;4.35;;;;;;;;;;4459336;32;20235;-56
2021/03/30 14:57:43;;;;;;;14.18;4.12;;;;;;;;;;4457741;32;20276;-56
2021/03/30 15:00:16;;;;;;;14.48;3.92;;;;;;;;;;4461385;32;20230;-55